sensor_id;sensor_type;location;lat;lon;timestamp;P1;durP1;ratioP1;P2;durP2;ratioP2
72273;SDS011;60208;48.692;8.948;2024-03-08T00:01:22;39.50;;;28.25;;
72273;SDS011;60208;48.692;8.948;2024-03-08T00:03:49;37.70;;;27.17;;
72273;SDS011;60208;48.692;8.948;2024-03-08T00:06:17;38.88;;;27.05;;
72273;SDS011;60208;48.692;8.948;2024-03-08T00:08:44;39.88;;;27.25;;
72273;SDS011;60208;48.692;8.948;2024-03-08T00:11:11;38.85;;;26.45;;
72273;SDS011;60208;48.692;8.948;2024-03-08T00:13:39;39.50;;;27.10;;
72273;SDS011;60208;48.692;8.948;2024-03-08T00:16:07;39.20;;;27.58;;
72273;SDS011;60208;48.692;8.948;2024-03-08T00:18:34;39.42;;;27.20;;
72273;SDS011;60208;48.692;8.948;2024-03-08T00:21:01;38.10;;;27.35;;
72273;SDS011;60208;48.692;8.948;2024-03-08T00:23:29;38.92;;;27.70;;
72273;SDS011;60208;48.692;8.948;2024-03-08T00:25:58;38.88;;;27.52;;
72273;SDS011;60208;48.692;8.948;2024-03-08T00:28:25;42.15;;;27.92;;
72273;SDS011;60208;48.692;8.948;2024-03-08T00:30:54;41.40;;;27.40;;
72273;SDS011;60208;48.692;8.948;2024-03-08T00:33:21;38.75;;;26.50;;
72273;SDS011;60208;48.692;8.948;2024-03-08T00:35:47;37.95;;;26.65;;
72273;SDS011;60208;48.692;8.948;2024-03-08T00:38:14;41.88;;;27.80;;
72273;SDS011;60208;48.692;8.948;2024-03-08T00:40:41;38.20;;;26.73;;
72273;SDS011;60208;48.692;8.948;2024-03-08T00:43:08;38.83;;;26.95;;
72273;SDS011;60208;48.692;8.948;2024-03-08T00:45:35;40.53;;;26.85;;
72273;SDS011;60208;48.692;8.948;2024-03-08T00:48:05;38.75;;;27.23;;
72273;SDS011;60208;48.692;8.948;2024-03-08T00:50:34;39.72;;;26.77;;
72273;SDS011;60208;48.692;8.948;2024-03-08T00:53:01;42.38;;;26.90;;
72273;SDS011;60208;48.692;8.948;2024-03-08T00:55:29;40.58;;;26.92;;
72273;SDS011;60208;48.692;8.948;2024-03-08T00:57:56;40.33;;;27.85;;
72273;SDS011;60208;48.692;8.948;2024-03-08T01:00:23;39.95;;;26.58;;
72273;SDS011;60208;48.692;8.948;2024-03-08T01:02:51;37.47;;;26.45;;
72273;SDS011;60208;48.692;8.948;2024-03-08T01:05:19;36.83;;;25.98;;
72273;SDS011;60208;48.692;8.948;2024-03-08T01:07:46;43.13;;;29.40;;
72273;SDS011;60208;48.692;8.948;2024-03-08T01:10:13;41.08;;;27.67;;
72273;SDS011;60208;48.692;8.948;2024-03-08T01:12:40;44.67;;;27.23;;
72273;SDS011;60208;48.692;8.948;2024-03-08T01:15:08;40.13;;;27.33;;
72273;SDS011;60208;48.692;8.948;2024-03-08T01:17:35;39.72;;;27.48;;
72273;SDS011;60208;48.692;8.948;2024-03-08T01:20:03;38.40;;;26.23;;
72273;SDS011;60208;48.692;8.948;2024-03-08T01:22:32;38.47;;;25.60;;
72273;SDS011;60208;48.692;8.948;2024-03-08T01:25:00;40.85;;;25.73;;
72273;SDS011;60208;48.692;8.948;2024-03-08T01:27:28;38.65;;;26.45;;
72273;SDS011;60208;48.692;8.948;2024-03-08T01:29:55;43.67;;;27.40;;
72273;SDS011;60208;48.692;8.948;2024-03-08T01:32:23;41.53;;;27.48;;
72273;SDS011;60208;48.692;8.948;2024-03-08T01:34:50;41.53;;;26.35;;
72273;SDS011;60208;48.692;8.948;2024-03-08T01:37:17;42.75;;;26.92;;
72273;SDS011;60208;48.692;8.948;2024-03-08T01:39:45;40.45;;;26.67;;
72273;SDS011;60208;48.692;8.948;2024-03-08T01:42:12;40.63;;;26.25;;
72273;SDS011;60208;48.692;8.948;2024-03-08T01:44:42;40.50;;;26.80;;
72273;SDS011;60208;48.692;8.948;2024-03-08T01:47:10;39.90;;;26.13;;
72273;SDS011;60208;48.692;8.948;2024-03-08T01:49:37;43.28;;;26.27;;
72273;SDS011;60208;48.692;8.948;2024-03-08T01:52:05;40.25;;;27.10;;
72273;SDS011;60208;48.692;8.948;2024-03-08T01:54:32;39.88;;;27.73;;
72273;SDS011;60208;48.692;8.948;2024-03-08T01:57:02;38.90;;;26.13;;
72273;SDS011;60208;48.692;8.948;2024-03-08T01:59:30;38.58;;;25.80;;
72273;SDS011;60208;48.692;8.948;2024-03-08T02:01:57;40.28;;;26.35;;
72273;SDS011;60208;48.692;8.948;2024-03-08T02:04:28;39.05;;;26.35;;
72273;SDS011;60208;48.692;8.948;2024-03-08T02:06:56;39.85;;;26.02;;
72273;SDS011;60208;48.692;8.948;2024-03-08T02:09:24;40.33;;;25.35;;
72273;SDS011;60208;48.692;8.948;2024-03-08T02:11:51;40.88;;;26.60;;
72273;SDS011;60208;48.692;8.948;2024-03-08T02:14:21;38.85;;;26.15;;
72273;SDS011;60208;48.692;8.948;2024-03-08T02:16:48;40.92;;;26.83;;
72273;SDS011;60208;48.692;8.948;2024-03-08T02:19:16;44.58;;;27.42;;
72273;SDS011;60208;48.692;8.948;2024-03-08T02:21:46;41.65;;;26.92;;
72273;SDS011;60208;48.692;8.948;2024-03-08T02:24:13;45.05;;;27.30;;
72273;SDS011;60208;48.692;8.948;2024-03-08T02:26:41;42.35;;;26.92;;
72273;SDS011;60208;48.692;8.948;2024-03-08T02:29:08;43.15;;;27.55;;
72273;SDS011;60208;48.692;8.948;2024-03-08T02:31:35;40.92;;;27.70;;
72273;SDS011;60208;48.692;8.948;2024-03-08T02:34:04;43.67;;;28.13;;
72273;SDS011;60208;48.692;8.948;2024-03-08T02:36:31;40.78;;;27.63;;
72273;SDS011;60208;48.692;8.948;2024-03-08T02:39:02;40.80;;;26.67;;
72273;SDS011;60208;48.692;8.948;2024-03-08T02:41:30;43.45;;;26.95;;
72273;SDS011;60208;48.692;8.948;2024-03-08T02:43:57;43.63;;;28.25;;
72273;SDS011;60208;48.692;8.948;2024-03-08T02:46:25;43.42;;;27.05;;
72273;SDS011;60208;48.692;8.948;2024-03-08T02:48:52;44.03;;;28.55;;
72273;SDS011;60208;48.692;8.948;2024-03-08T02:51:18;46.15;;;28.23;;
72273;SDS011;60208;48.692;8.948;2024-03-08T02:53:46;39.70;;;25.92;;
72273;SDS011;60208;48.692;8.948;2024-03-08T02:56:15;42.55;;;27.23;;
72273;SDS011;60208;48.692;8.948;2024-03-08T02:58:43;43.45;;;28.10;;
72273;SDS011;60208;48.692;8.948;2024-03-08T03:01:13;41.20;;;27.10;;
72273;SDS011;60208;48.692;8.948;2024-03-08T03:03:40;38.08;;;25.83;;
72273;SDS011;60208;48.692;8.948;2024-03-08T03:06:08;37.53;;;25.73;;
72273;SDS011;60208;48.692;8.948;2024-03-08T03:08:35;41.45;;;26.92;;
72273;SDS011;60208;48.692;8.948;2024-03-08T03:11:02;42.45;;;27.05;;
72273;SDS011;60208;48.692;8.948;2024-03-08T03:13:30;44.85;;;26.55;;
72273;SDS011;60208;48.692;8.948;2024-03-08T03:15:58;43.15;;;28.02;;
72273;SDS011;60208;48.692;8.948;2024-03-08T03:18:25;40.13;;;26.70;;
72273;SDS011;60208;48.692;8.948;2024-03-08T03:20:52;44.50;;;27.92;;
72273;SDS011;60208;48.692;8.948;2024-03-08T03:23:19;42.90;;;27.90;;
72273;SDS011;60208;48.692;8.948;2024-03-08T03:25:46;44.53;;;27.75;;
72273;SDS011;60208;48.692;8.948;2024-03-08T03:28:14;42.75;;;27.05;;
72273;SDS011;60208;48.692;8.948;2024-03-08T03:30:45;42.50;;;26.08;;
72273;SDS011;60208;48.692;8.948;2024-03-08T03:33:13;43.95;;;26.98;;
72273;SDS011;60208;48.692;8.948;2024-03-08T03:35:40;41.08;;;26.35;;
72273;SDS011;60208;48.692;8.948;2024-03-08T03:38:08;41.35;;;25.42;;
72273;SDS011;60208;48.692;8.948;2024-03-08T03:40:35;42.08;;;26.92;;
72273;SDS011;60208;48.692;8.948;2024-03-08T03:43:02;40.72;;;25.92;;
72273;SDS011;60208;48.692;8.948;2024-03-08T03:45:30;42.72;;;26.98;;
72273;SDS011;60208;48.692;8.948;2024-03-08T03:48:02;39.25;;;25.30;;
72273;SDS011;60208;48.692;8.948;2024-03-08T03:50:30;41.72;;;25.73;;
72273;SDS011;60208;48.692;8.948;2024-03-08T03:52:59;41.35;;;25.48;;
72273;SDS011;60208;48.692;8.948;2024-03-08T03:55:27;37.50;;;25.00;;
72273;SDS011;60208;48.692;8.948;2024-03-08T03:57:54;37.75;;;24.80;;
72273;SDS011;60208;48.692;8.948;2024-03-08T04:00:21;37.75;;;23.95;;
72273;SDS011;60208;48.692;8.948;2024-03-08T04:02:48;38.45;;;25.08;;
72273;SDS011;60208;48.692;8.948;2024-03-08T04:05:17;41.08;;;25.77;;
72273;SDS011;60208;48.692;8.948;2024-03-08T04:07:44;40.60;;;24.95;;
72273;SDS011;60208;48.692;8.948;2024-03-08T04:10:11;39.70;;;25.83;;
72273;SDS011;60208;48.692;8.948;2024-03-08T04:12:38;38.22;;;24.80;;
72273;SDS011;60208;48.692;8.948;2024-03-08T04:15:06;42.47;;;26.00;;
72273;SDS011;60208;48.692;8.948;2024-03-08T04:17:33;40.72;;;26.70;;
72273;SDS011;60208;48.692;8.948;2024-03-08T04:20:02;42.30;;;26.08;;
72273;SDS011;60208;48.692;8.948;2024-03-08T04:22:36;39.42;;;24.98;;
72273;SDS011;60208;48.692;8.948;2024-03-08T04:25:03;43.47;;;26.75;;
72273;SDS011;60208;48.692;8.948;2024-03-08T04:27:31;42.90;;;25.73;;
72273;SDS011;60208;48.692;8.948;2024-03-08T04:29:59;39.97;;;25.63;;
72273;SDS011;60208;48.692;8.948;2024-03-08T04:32:26;39.47;;;25.60;;
72273;SDS011;60208;48.692;8.948;2024-03-08T04:34:54;39.53;;;25.02;;
72273;SDS011;60208;48.692;8.948;2024-03-08T04:37:21;39.70;;;25.50;;
72273;SDS011;60208;48.692;8.948;2024-03-08T04:39:50;39.88;;;24.33;;
72273;SDS011;60208;48.692;8.948;2024-03-08T04:42:17;38.55;;;24.15;;
72273;SDS011;60208;48.692;8.948;2024-03-08T04:44:45;40.05;;;25.30;;
72273;SDS011;60208;48.692;8.948;2024-03-08T04:47:12;38.58;;;24.83;;
72273;SDS011;60208;48.692;8.948;2024-03-08T04:49:39;41.28;;;25.42;;
72273;SDS011;60208;48.692;8.948;2024-03-08T04:52:06;39.38;;;25.27;;
72273;SDS011;60208;48.692;8.948;2024-03-08T04:54:33;38.22;;;25.23;;
72273;SDS011;60208;48.692;8.948;2024-03-08T04:57:01;38.55;;;24.83;;
72273;SDS011;60208;48.692;8.948;2024-03-08T04:59:29;40.38;;;25.77;;
72273;SDS011;60208;48.692;8.948;2024-03-08T05:01:57;41.35;;;25.92;;
72273;SDS011;60208;48.692;8.948;2024-03-08T05:04:24;39.78;;;25.70;;
72273;SDS011;60208;48.692;8.948;2024-03-08T05:06:51;46.50;;;27.58;;
72273;SDS011;60208;48.692;8.948;2024-03-08T05:09:18;40.63;;;25.75;;
72273;SDS011;60208;48.692;8.948;2024-03-08T05:11:45;40.55;;;25.60;;
72273;SDS011;60208;48.692;8.948;2024-03-08T05:14:14;40.63;;;24.92;;
72273;SDS011;60208;48.692;8.948;2024-03-08T05:16:42;44.08;;;28.20;;
72273;SDS011;60208;48.692;8.948;2024-03-08T05:19:13;44.35;;;27.55;;
72273;SDS011;60208;48.692;8.948;2024-03-08T05:21:43;40.83;;;26.60;;
72273;SDS011;60208;48.692;8.948;2024-03-08T05:24:10;43.58;;;26.00;;
72273;SDS011;60208;48.692;8.948;2024-03-08T05:26:38;40.45;;;26.33;;
72273;SDS011;60208;48.692;8.948;2024-03-08T05:29:05;42.70;;;26.85;;
72273;SDS011;60208;48.692;8.948;2024-03-08T05:31:35;38.65;;;25.17;;
72273;SDS011;60208;48.692;8.948;2024-03-08T05:34:10;38.67;;;25.48;;
72273;SDS011;60208;48.692;8.948;2024-03-08T05:36:39;39.83;;;26.02;;
72273;SDS011;60208;48.692;8.948;2024-03-08T05:39:06;44.88;;;26.38;;
72273;SDS011;60208;48.692;8.948;2024-03-08T05:41:33;45.47;;;27.48;;
72273;SDS011;60208;48.692;8.948;2024-03-08T05:44:00;47.03;;;27.17;;
72273;SDS011;60208;48.692;8.948;2024-03-08T05:46:28;42.03;;;26.77;;
72273;SDS011;60208;48.692;8.948;2024-03-08T05:48:56;44.72;;;27.23;;
72273;SDS011;60208;48.692;8.948;2024-03-08T05:51:25;45.90;;;26.50;;
72273;SDS011;60208;48.692;8.948;2024-03-08T05:53:52;46.35;;;28.38;;
72273;SDS011;60208;48.692;8.948;2024-03-08T05:56:21;46.78;;;28.17;;
72273;SDS011;60208;48.692;8.948;2024-03-08T05:58:48;44.88;;;27.40;;
72273;SDS011;60208;48.692;8.948;2024-03-08T06:01:15;47.55;;;27.00;;
72273;SDS011;60208;48.692;8.948;2024-03-08T06:03:43;50.90;;;29.08;;
72273;SDS011;60208;48.692;8.948;2024-03-08T06:06:13;40.28;;;26.35;;
72273;SDS011;60208;48.692;8.948;2024-03-08T06:08:40;45.22;;;27.10;;
72273;SDS011;60208;48.692;8.948;2024-03-08T06:11:08;40.22;;;26.60;;
72273;SDS011;60208;48.692;8.948;2024-03-08T06:13:36;42.75;;;25.77;;
72273;SDS011;60208;48.692;8.948;2024-03-08T06:16:04;45.90;;;26.10;;
72273;SDS011;60208;48.692;8.948;2024-03-08T06:18:33;46.38;;;30.77;;
72273;SDS011;60208;48.692;8.948;2024-03-08T06:21:02;36.85;;;25.00;;
72273;SDS011;60208;48.692;8.948;2024-03-08T06:23:32;36.33;;;25.00;;
72273;SDS011;60208;48.692;8.948;2024-03-08T06:25:59;37.17;;;25.73;;
72273;SDS011;60208;48.692;8.948;2024-03-08T06:28:26;34.78;;;24.52;;
72273;SDS011;60208;48.692;8.948;2024-03-08T06:30:53;40.20;;;25.67;;
72273;SDS011;60208;48.692;8.948;2024-03-08T06:33:20;40.63;;;26.42;;
72273;SDS011;60208;48.692;8.948;2024-03-08T06:35:47;39.55;;;25.70;;
72273;SDS011;60208;48.692;8.948;2024-03-08T06:38:15;36.33;;;24.90;;
72273;SDS011;60208;48.692;8.948;2024-03-08T06:40:43;39.83;;;25.40;;
72273;SDS011;60208;48.692;8.948;2024-03-08T06:43:13;38.20;;;24.45;;
72273;SDS011;60208;48.692;8.948;2024-03-08T06:45:41;36.72;;;24.63;;
72273;SDS011;60208;48.692;8.948;2024-03-08T06:48:14;36.88;;;23.88;;
72273;SDS011;60208;48.692;8.948;2024-03-08T06:50:42;36.13;;;23.90;;
72273;SDS011;60208;48.692;8.948;2024-03-08T06:53:10;35.40;;;24.50;;
72273;SDS011;60208;48.692;8.948;2024-03-08T06:55:37;34.47;;;24.65;;
72273;SDS011;60208;48.692;8.948;2024-03-08T06:58:05;38.92;;;25.65;;
72273;SDS011;60208;48.692;8.948;2024-03-08T07:00:33;34.30;;;23.77;;
72273;SDS011;60208;48.692;8.948;2024-03-08T07:03:01;37.22;;;26.67;;
72273;SDS011;60208;48.692;8.948;2024-03-08T07:05:28;33.45;;;24.20;;
72273;SDS011;60208;48.692;8.948;2024-03-08T07:07:55;35.78;;;23.92;;
72273;SDS011;60208;48.692;8.948;2024-03-08T07:10:22;36.60;;;26.20;;
72273;SDS011;60208;48.692;8.948;2024-03-08T07:12:50;35.42;;;26.17;;
72273;SDS011;60208;48.692;8.948;2024-03-08T07:15:19;35.42;;;24.42;;
72273;SDS011;60208;48.692;8.948;2024-03-08T07:17:48;50.40;;;36.17;;
72273;SDS011;60208;48.692;8.948;2024-03-08T07:20:17;35.95;;;24.92;;
72273;SDS011;60208;48.692;8.948;2024-03-08T07:22:45;40.78;;;24.10;;
72273;SDS011;60208;48.692;8.948;2024-03-08T07:25:13;32.88;;;22.00;;
72273;SDS011;60208;48.692;8.948;2024-03-08T07:27:46;34.50;;;24.08;;
72273;SDS011;60208;48.692;8.948;2024-03-08T07:30:14;33.22;;;23.63;;
72273;SDS011;60208;48.692;8.948;2024-03-08T07:33:05;35.85;;;24.50;;
72273;SDS011;60208;48.692;8.948;2024-03-08T07:35:33;33.00;;;22.70;;
72273;SDS011;60208;48.692;8.948;2024-03-08T07:38:02;37.42;;;24.98;;
72273;SDS011;60208;48.692;8.948;2024-03-08T07:40:30;34.58;;;22.88;;
72273;SDS011;60208;48.692;8.948;2024-03-08T07:42:57;31.60;;;23.10;;
72273;SDS011;60208;48.692;8.948;2024-03-08T07:45:25;36.13;;;23.13;;
72273;SDS011;60208;48.692;8.948;2024-03-08T07:47:52;33.00;;;23.15;;
72273;SDS011;60208;48.692;8.948;2024-03-08T07:50:22;32.42;;;22.90;;
72273;SDS011;60208;48.692;8.948;2024-03-08T07:52:49;30.83;;;22.83;;
72273;SDS011;60208;48.692;8.948;2024-03-08T07:55:16;29.02;;;21.98;;
72273;SDS011;60208;48.692;8.948;2024-03-08T07:57:44;28.83;;;21.88;;
72273;SDS011;60208;48.692;8.948;2024-03-08T08:00:13;33.42;;;21.35;;
72273;SDS011;60208;48.692;8.948;2024-03-08T08:02:43;30.00;;;21.25;;
72273;SDS011;60208;48.692;8.948;2024-03-08T08:05:11;29.50;;;21.35;;
72273;SDS011;60208;48.692;8.948;2024-03-08T08:07:43;31.85;;;21.55;;
72273;SDS011;60208;48.692;8.948;2024-03-08T08:10:11;28.45;;;20.48;;
72273;SDS011;60208;48.692;8.948;2024-03-08T08:12:43;32.35;;;19.88;;
72273;SDS011;60208;48.692;8.948;2024-03-08T08:15:12;27.70;;;19.92;;
72273;SDS011;60208;48.692;8.948;2024-03-08T08:17:40;30.15;;;20.58;;
72273;SDS011;60208;48.692;8.948;2024-03-08T08:20:08;27.30;;;19.85;;
72273;SDS011;60208;48.692;8.948;2024-03-08T08:22:37;29.25;;;19.80;;
72273;SDS011;60208;48.692;8.948;2024-03-08T08:25:06;29.67;;;20.13;;
72273;SDS011;60208;48.692;8.948;2024-03-08T08:27:34;28.38;;;20.15;;
72273;SDS011;60208;48.692;8.948;2024-03-08T08:30:02;26.65;;;20.13;;
72273;SDS011;60208;48.692;8.948;2024-03-08T08:32:33;28.25;;;20.88;;
72273;SDS011;60208;48.692;8.948;2024-03-08T08:35:01;24.85;;;19.77;;
72273;SDS011;60208;48.692;8.948;2024-03-08T08:37:29;26.63;;;20.20;;
72273;SDS011;60208;48.692;8.948;2024-03-08T08:39:56;24.92;;;19.02;;
72273;SDS011;60208;48.692;8.948;2024-03-08T08:42:25;28.77;;;18.98;;
72273;SDS011;60208;48.692;8.948;2024-03-08T08:44:53;26.55;;;19.52;;
72273;SDS011;60208;48.692;8.948;2024-03-08T08:47:23;26.38;;;20.38;;
72273;SDS011;60208;48.692;8.948;2024-03-08T08:49:50;26.40;;;18.60;;
72273;SDS011;60208;48.692;8.948;2024-03-08T08:52:17;27.70;;;20.02;;
72273;SDS011;60208;48.692;8.948;2024-03-08T08:54:44;25.52;;;18.85;;
72273;SDS011;60208;48.692;8.948;2024-03-08T08:57:11;26.42;;;19.33;;
72273;SDS011;60208;48.692;8.948;2024-03-08T08:59:40;25.10;;;18.05;;
72273;SDS011;60208;48.692;8.948;2024-03-08T09:02:07;26.77;;;18.13;;
72273;SDS011;60208;48.692;8.948;2024-03-08T09:04:35;26.35;;;19.85;;
72273;SDS011;60208;48.692;8.948;2024-03-08T09:07:02;25.05;;;18.60;;
72273;SDS011;60208;48.692;8.948;2024-03-08T09:09:31;24.25;;;18.65;;
72273;SDS011;60208;48.692;8.948;2024-03-08T09:11:58;23.58;;;17.70;;
72273;SDS011;60208;48.692;8.948;2024-03-08T09:14:26;25.80;;;19.50;;
72273;SDS011;60208;48.692;8.948;2024-03-08T09:16:54;24.30;;;18.63;;
72273;SDS011;60208;48.692;8.948;2024-03-08T09:19:21;34.15;;;19.65;;
72273;SDS011;60208;48.692;8.948;2024-03-08T09:21:51;25.75;;;19.63;;
72273;SDS011;60208;48.692;8.948;2024-03-08T09:24:18;24.58;;;19.25;;
72273;SDS011;60208;48.692;8.948;2024-03-08T09:26:46;26.23;;;18.65;;
72273;SDS011;60208;48.692;8.948;2024-03-08T09:29:12;26.80;;;18.58;;
72273;SDS011;60208;48.692;8.948;2024-03-08T09:31:39;23.98;;;17.63;;
72273;SDS011;60208;48.692;8.948;2024-03-08T09:34:08;22.80;;;18.38;;
72273;SDS011;60208;48.692;8.948;2024-03-08T09:36:35;23.35;;;17.45;;
72273;SDS011;60208;48.692;8.948;2024-03-08T09:39:02;21.50;;;17.15;;
72273;SDS011;60208;48.692;8.948;2024-03-08T09:41:32;22.60;;;18.02;;
72273;SDS011;60208;48.692;8.948;2024-03-08T09:44:00;23.75;;;18.40;;
72273;SDS011;60208;48.692;8.948;2024-03-08T09:46:29;23.63;;;18.92;;
72273;SDS011;60208;48.692;8.948;2024-03-08T09:48:56;23.55;;;18.00;;
72273;SDS011;60208;48.692;8.948;2024-03-08T09:51:27;23.35;;;18.27;;
72273;SDS011;60208;48.692;8.948;2024-03-08T09:53:56;20.90;;;14.10;;
72273;SDS011;60208;48.692;8.948;2024-03-08T09:56:23;24.83;;;18.83;;
72273;SDS011;60208;48.692;8.948;2024-03-08T09:58:52;27.67;;;18.75;;
72273;SDS011;60208;48.692;8.948;2024-03-08T10:01:45;24.08;;;18.25;;
72273;SDS011;60208;48.692;8.948;2024-03-08T10:04:12;25.15;;;18.65;;
72273;SDS011;60208;48.692;8.948;2024-03-08T10:06:41;23.58;;;17.55;;
72273;SDS011;60208;48.692;8.948;2024-03-08T10:09:09;25.38;;;17.98;;
72273;SDS011;60208;48.692;8.948;2024-03-08T10:11:37;27.85;;;18.00;;
72273;SDS011;60208;48.692;8.948;2024-03-08T10:14:04;23.42;;;17.05;;
72273;SDS011;60208;48.692;8.948;2024-03-08T10:16:31;23.05;;;18.80;;
72273;SDS011;60208;48.692;8.948;2024-03-08T10:18:59;22.35;;;17.20;;
72273;SDS011;60208;48.692;8.948;2024-03-08T10:21:27;22.58;;;16.50;;
72273;SDS011;60208;48.692;8.948;2024-03-08T10:23:55;21.05;;;17.08;;
72273;SDS011;60208;48.692;8.948;2024-03-08T10:26:23;23.30;;;18.25;;
72273;SDS011;60208;48.692;8.948;2024-03-08T10:28:51;21.48;;;16.77;;
72273;SDS011;60208;48.692;8.948;2024-03-08T10:31:19;21.42;;;17.00;;
72273;SDS011;60208;48.692;8.948;2024-03-08T10:33:46;22.58;;;17.65;;
72273;SDS011;60208;48.692;8.948;2024-03-08T10:36:14;21.65;;;16.60;;
72273;SDS011;60208;48.692;8.948;2024-03-08T10:38:42;21.40;;;16.90;;
72273;SDS011;60208;48.692;8.948;2024-03-08T10:41:13;26.73;;;20.60;;
72273;SDS011;60208;48.692;8.948;2024-03-08T10:43:47;21.80;;;17.60;;
72273;SDS011;60208;48.692;8.948;2024-03-08T10:46:27;21.55;;;16.95;;
72273;SDS011;60208;48.692;8.948;2024-03-08T10:49:02;20.98;;;16.05;;
72273;SDS011;60208;48.692;8.948;2024-03-08T10:51:33;20.75;;;16.83;;
72273;SDS011;60208;48.692;8.948;2024-03-08T10:54:01;21.95;;;16.88;;
72273;SDS011;60208;48.692;8.948;2024-03-08T10:56:31;20.10;;;16.38;;
72273;SDS011;60208;48.692;8.948;2024-03-08T10:58:58;23.15;;;17.95;;
72273;SDS011;60208;48.692;8.948;2024-03-08T11:01:25;20.42;;;16.10;;
72273;SDS011;60208;48.692;8.948;2024-03-08T11:03:52;20.08;;;16.48;;
72273;SDS011;60208;48.692;8.948;2024-03-08T11:06:22;19.65;;;16.52;;
72273;SDS011;60208;48.692;8.948;2024-03-08T11:08:56;20.63;;;15.95;;
72273;SDS011;60208;48.692;8.948;2024-03-08T11:11:24;19.02;;;16.10;;
72273;SDS011;60208;48.692;8.948;2024-03-08T11:13:56;23.25;;;16.25;;
72273;SDS011;60208;48.692;8.948;2024-03-08T11:16:37;20.75;;;16.05;;
72273;SDS011;60208;48.692;8.948;2024-03-08T11:21:57;19.35;;;15.20;;
72273;SDS011;60208;48.692;8.948;2024-03-08T11:24:28;18.20;;;14.57;;
72273;SDS011;60208;48.692;8.948;2024-03-08T11:27:03;17.30;;;15.13;;
72273;SDS011;60208;48.692;8.948;2024-03-08T11:29:33;18.52;;;14.55;;
72273;SDS011;60208;48.692;8.948;2024-03-08T11:32:08;18.67;;;14.57;;
72273;SDS011;60208;48.692;8.948;2024-03-08T11:34:36;18.58;;;14.60;;
72273;SDS011;60208;48.692;8.948;2024-03-08T11:37:04;16.42;;;14.30;;
72273;SDS011;60208;48.692;8.948;2024-03-08T11:39:35;16.98;;;14.13;;
72273;SDS011;60208;48.692;8.948;2024-03-08T11:42:04;17.48;;;13.75;;
72273;SDS011;60208;48.692;8.948;2024-03-08T11:44:32;16.20;;;14.23;;
72273;SDS011;60208;48.692;8.948;2024-03-08T11:47:01;15.25;;;13.65;;
72273;SDS011;60208;48.692;8.948;2024-03-08T11:49:31;15.60;;;14.00;;
72273;SDS011;60208;48.692;8.948;2024-03-08T11:51:59;21.27;;;14.90;;
72273;SDS011;60208;48.692;8.948;2024-03-08T11:54:26;16.00;;;13.70;;
72273;SDS011;60208;48.692;8.948;2024-03-08T11:56:55;15.73;;;14.00;;
72273;SDS011;60208;48.692;8.948;2024-03-08T11:59:26;17.67;;;13.27;;
72273;SDS011;60208;48.692;8.948;2024-03-08T12:02:03;15.23;;;13.63;;
72273;SDS011;60208;48.692;8.948;2024-03-08T12:04:31;14.50;;;12.90;;
72273;SDS011;60208;48.692;8.948;2024-03-08T12:07:01;13.10;;;11.80;;
72273;SDS011;60208;48.692;8.948;2024-03-08T12:09:34;15.13;;;12.82;;
72273;SDS011;60208;48.692;8.948;2024-03-08T12:12:02;15.02;;;12.18;;
72273;SDS011;60208;48.692;8.948;2024-03-08T12:14:29;13.85;;;12.32;;
72273;SDS011;60208;48.692;8.948;2024-03-08T12:16:57;14.23;;;12.75;;
72273;SDS011;60208;48.692;8.948;2024-03-08T12:19:27;14.88;;;13.35;;
72273;SDS011;60208;48.692;8.948;2024-03-08T12:21:55;12.93;;;11.73;;
72273;SDS011;60208;48.692;8.948;2024-03-08T12:24:21;14.38;;;12.98;;
72273;SDS011;60208;48.692;8.948;2024-03-08T12:26:48;13.98;;;12.57;;
72273;SDS011;60208;48.692;8.948;2024-03-08T12:29:17;13.80;;;12.40;;
72273;SDS011;60208;48.692;8.948;2024-03-08T12:31:47;13.10;;;11.80;;
72273;SDS011;60208;48.692;8.948;2024-03-08T12:34:17;12.73;;;11.52;;
72273;SDS011;60208;48.692;8.948;2024-03-08T12:36:46;16.25;;;11.73;;
72273;SDS011;60208;48.692;8.948;2024-03-08T12:39:15;12.93;;;11.70;;
72273;SDS011;60208;48.692;8.948;2024-03-08T12:41:47;13.60;;;12.20;;
72273;SDS011;60208;48.692;8.948;2024-03-08T12:44:17;13.13;;;11.93;;
72273;SDS011;60208;48.692;8.948;2024-03-08T12:46:44;14.60;;;13.30;;
72273;SDS011;60208;48.692;8.948;2024-03-08T12:49:11;13.25;;;11.90;;
72273;SDS011;60208;48.692;8.948;2024-03-08T12:51:42;12.98;;;11.68;;
72273;SDS011;60208;48.692;8.948;2024-03-08T12:54:11;12.43;;;11.27;;
72273;SDS011;60208;48.692;8.948;2024-03-08T12:56:38;11.98;;;10.93;;
72273;SDS011;60208;48.692;8.948;2024-03-08T12:59:06;12.35;;;11.25;;
72273;SDS011;60208;48.692;8.948;2024-03-08T13:01:35;12.05;;;11.00;;
72273;SDS011;60208;48.692;8.948;2024-03-08T13:04:03;13.18;;;11.88;;
72273;SDS011;60208;48.692;8.948;2024-03-08T13:06:31;11.73;;;10.65;;
72273;SDS011;60208;48.692;8.948;2024-03-08T13:08:59;11.65;;;10.55;;
72273;SDS011;60208;48.692;8.948;2024-03-08T13:11:31;11.80;;;10.60;;
72273;SDS011;60208;48.692;8.948;2024-03-08T13:14:02;11.93;;;10.65;;
72273;SDS011;60208;48.692;8.948;2024-03-08T13:16:30;11.18;;;10.02;;
72273;SDS011;60208;48.692;8.948;2024-03-08T13:19:00;11.43;;;10.43;;
72273;SDS011;60208;48.692;8.948;2024-03-08T13:21:27;14.70;;;11.45;;
72273;SDS011;60208;48.692;8.948;2024-03-08T13:23:55;11.90;;;10.80;;
72273;SDS011;60208;48.692;8.948;2024-03-08T13:26:25;11.25;;;10.30;;
72273;SDS011;60208;48.692;8.948;2024-03-08T13:28:59;12.45;;;11.35;;
72273;SDS011;60208;48.692;8.948;2024-03-08T13:31:28;12.70;;;11.60;;
72273;SDS011;60208;48.692;8.948;2024-03-08T13:33:55;12.60;;;11.48;;
72273;SDS011;60208;48.692;8.948;2024-03-08T13:36:23;13.25;;;12.15;;
72273;SDS011;60208;48.692;8.948;2024-03-08T13:38:54;14.10;;;12.60;;
72273;SDS011;60208;48.692;8.948;2024-03-08T13:41:24;13.63;;;12.30;;
72273;SDS011;60208;48.692;8.948;2024-03-08T13:43:51;14.27;;;12.77;;
72273;SDS011;60208;48.692;8.948;2024-03-08T13:46:21;14.43;;;12.93;;
72273;SDS011;60208;48.692;8.948;2024-03-08T13:48:48;15.02;;;13.63;;
72273;SDS011;60208;48.692;8.948;2024-03-08T13:51:16;14.10;;;12.80;;
72273;SDS011;60208;48.692;8.948;2024-03-08T13:53:43;13.45;;;12.07;;
72273;SDS011;60208;48.692;8.948;2024-03-08T13:56:10;14.57;;;13.18;;
72273;SDS011;60208;48.692;8.948;2024-03-08T13:58:37;14.35;;;12.90;;
72273;SDS011;60208;48.692;8.948;2024-03-08T14:01:06;14.00;;;12.70;;
72273;SDS011;60208;48.692;8.948;2024-03-08T14:03:38;13.27;;;11.98;;
72273;SDS011;60208;48.692;8.948;2024-03-08T14:06:07;14.18;;;12.88;;
72273;SDS011;60208;48.692;8.948;2024-03-08T14:08:34;13.40;;;11.90;;
72273;SDS011;60208;48.692;8.948;2024-03-08T14:11:03;12.63;;;11.43;;
72273;SDS011;60208;48.692;8.948;2024-03-08T14:13:40;14.18;;;12.88;;
72273;SDS011;60208;48.692;8.948;2024-03-08T14:16:11;18.50;;;13.30;;
72273;SDS011;60208;48.692;8.948;2024-03-08T14:18:40;12.80;;;11.50;;
72273;SDS011;60208;48.692;8.948;2024-03-08T14:21:08;15.68;;;14.00;;
72273;SDS011;60208;48.692;8.948;2024-03-08T14:23:36;14.98;;;13.57;;
72273;SDS011;60208;48.692;8.948;2024-03-08T14:26:03;13.65;;;12.27;;
72273;SDS011;60208;48.692;8.948;2024-03-08T14:28:32;15.80;;;14.13;;
72273;SDS011;60208;48.692;8.948;2024-03-08T14:30:59;15.25;;;13.75;;